Time;durP1;ratioP1;P1;durP2;ratioP2;P2;SDS_P1;SDS_P2;PMS_P1;PMS_P2;Temp;Humidity;BMP_temperature;BMP_pressure;BME280_temperature;BME280_humidity;BME280_pressure;Samples;Min_cycle;Max_cycle;Signal;HPM_P1;HPM_P2
2023/09/02 00:02:02;;;;;;;46.10;26.23;;;;;;;19.34;100.00;-18547.25;5028789;28;20041;-77
2023/09/02 00:04:28;;;;;;;46.45;25.90;;;;;;;19.30;100.00;-18546.16;5008919;28;20037;-77
2023/09/02 00:06:53;;;;;;;46.92;26.42;;;;;;;19.43;100.00;-18549.56;5027667;28;20048;-78
2023/09/02 00:09:19;;;;;;;45.30;25.55;;;;;;;19.48;100.00;-18551.06;5032806;28;20041;-77
2023/09/02 00:11:44;;;;;;;47.35;24.67;;;;;;;19.43;100.00;-18549.69;5035300;28;20119;-77
2023/09/02 00:14:09;;;;;;;46.05;27.38;;;;;;;19.43;100.00;-18549.69;5033579;28;20033;-78
2023/09/02 00:16:35;;;;;;;45.08;25.05;;;;;;;19.48;100.00;-18551.06;5034440;28;20037;-78
2023/09/02 00:19:02;;;;;;;47.90;26.30;;;;;;;19.51;100.00;-18551.88;5035121;28;20029;-79
2023/09/02 00:21:27;;;;;;;50.78;25.48;;;;;;;19.46;100.00;-18550.53;5015356;28;20192;-79
2023/09/02 00:24:02;;;;;;;47.58;26.42;;;;;;;19.52;100.00;-18552.03;5034121;28;20519;-78
2023/09/02 00:26:28;;;;;;;47.95;23.48;;;;;;;19.47;100.00;-18550.78;5031061;28;20057;-78
2023/09/02 00:28:53;;;;;;;44.15;26.38;;;;;;;19.51;100.00;-18551.88;5034866;28;20060;-78
2023/09/02 00:31:19;;;;;;;53.50;28.38;;;;;;;19.58;100.00;-18553.78;5015047;28;20733;-77
2023/09/02 00:33:44;;;;;;;47.60;26.70;;;;;;;19.64;100.00;-18555.16;5034933;28;20740;-77
2023/09/02 00:36:09;;;;;;;51.80;25.67;;;;;;;19.79;100.00;-18559.38;5032048;28;20049;-77
2023/09/02 00:38:35;;;;;;;48.70;26.10;;;;;;;19.86;100.00;-18561.16;5011678;28;20041;-78
2023/09/02 00:41:06;;;;;;;51.28;26.08;;;;;;;19.87;100.00;-18561.41;5021196;28;20086;-79
2023/09/02 00:43:31;;;;;;;49.05;26.40;;;;;;;20.02;100.00;-18565.50;5024949;28;20068;-77
2023/09/02 00:45:58;;;;;;;53.80;26.85;;;;;;;19.97;100.00;-18564.16;5031944;28;20037;-77
2023/09/02 00:48:24;;;;;;;53.15;26.67;;;;;;;20.18;100.00;-18569.72;5031390;28;20045;-78
2023/09/02 00:50:49;;;;;;;50.83;25.58;;;;;;;20.23;100.00;-18571.09;5031767;28;20063;-78
2023/09/02 00:53:14;;;;;;;55.00;26.70;;;;;;;20.32;100.00;-18573.41;5032206;28;20422;-79
2023/09/02 00:55:40;;;;;;;52.75;25.90;;;;;;;20.33;100.00;-18573.66;5030954;28;20140;-79
2023/09/02 00:58:07;;;;;;;56.70;26.77;;;;;;;20.39;100.00;-18575.31;5025780;28;20056;-78
2023/09/02 01:00:32;;;;;;;47.83;25.05;;;;;;;20.34;100.00;-18573.94;5015109;28;20065;-77
2023/09/02 01:02:58;;;;;;;58.25;27.42;;;;;;;20.35;100.00;-18574.09;5030600;28;20041;-77
2023/09/02 01:05:24;;;;;;;52.30;25.90;;;;;;;20.34;100.00;-18573.81;5028237;28;20037;-77
2023/09/02 01:07:51;;;;;;;55.22;26.25;;;;;;;20.34;100.00;-18573.94;5027095;28;20725;-77
2023/09/02 01:10:18;;;;;;;54.05;26.85;;;;;;;20.25;100.00;-18571.50;5025615;28;20037;-77
2023/09/02 01:12:44;;;;;;;57.38;25.48;;;;;;;20.22;100.00;-18570.69;5026079;28;20033;-77
2023/09/02 01:15:09;;;;;;;49.00;24.85;;;;;;;20.14;100.00;-18568.63;5025801;28;20088;-77
2023/09/02 01:17:35;;;;;;;57.80;25.80;;;;;;;20.34;100.00;-18573.81;5026160;28;20049;-77
2023/09/02 01:20:03;;;;;;;53.97;25.05;;;;;;;20.27;100.00;-18572.03;5026462;28;20140;-77
2023/09/02 01:23:25;;;;;;;55.45;26.10;;;;;;;20.57;100.00;-18579.94;5024543;28;20033;-77
2023/09/02 01:26:00;;;;;;;61.60;27.85;;;;;;;21.26;100.00;-18598.28;4911113;29;20050;-77
2023/09/02 01:28:31;;;;;;;54.60;25.10;;;;;;;19.64;100.00;-18555.28;4945077;28;20072;-77
2023/09/02 01:30:59;;;;;;;59.05;25.70;;;;;;;19.61;100.00;-18554.59;4983726;28;20037;-78
2023/09/02 01:33:27;;;;;;;55.83;24.98;;;;;;;19.56;100.00;-18553.25;5025501;28;20033;-78
2023/09/02 01:35:57;;;;;;;58.08;25.80;;;;;;;19.58;100.00;-18553.66;5025312;28;20049;-77
2023/09/02 01:38:24;;;;;;;57.30;25.55;;;;;;;19.58;100.00;-18553.66;5024044;28;20054;-77
2023/09/02 01:40:51;;;;;;;52.42;23.85;;;;;;;19.57;100.00;-18553.50;5005841;28;20033;-77
2023/09/02 01:43:20;;;;;;;55.85;23.85;;;;;;;19.50;100.00;-18551.59;5022662;28;20034;-77
2023/09/02 01:45:46;;;;;;;53.55;24.05;;;;;;;19.39;100.00;-18548.59;5028736;28;20064;-77
2023/09/02 01:48:13;;;;;;;59.67;24.52;;;;;;;19.36;100.00;-18547.94;5023746;28;20069;-78
2023/09/02 01:50:40;;;;;;;56.83;24.80;;;;;;;19.54;100.00;-18552.56;5025640;28;20033;-78
2023/09/02 01:53:08;;;;;;;55.03;23.85;;;;;;;19.51;100.00;-18551.88;5012300;28;20120;-77
2023/09/02 01:55:34;;;;;;;56.97;24.25;;;;;;;19.55;100.00;-18552.97;5027364;28;20033;-78
2023/09/02 01:58:00;;;;;;;54.95;23.80;;;;;;;19.57;100.00;-18553.50;5021139;28;20084;-77
2023/09/02 02:00:26;;;;;;;58.30;25.25;;;;;;;19.57;100.00;-18553.50;5023736;28;20041;-77
2023/09/02 02:02:54;;;;;;;56.35;24.42;;;;;;;19.59;100.00;-18554.06;5025458;28;20033;-77
2023/09/02 02:05:27;;;;;;;56.17;23.92;;;;;;;19.63;100.00;-18554.88;5022283;28;20033;-76
2023/09/02 02:07:59;;;;;;;57.80;24.80;;;;;;;19.67;100.00;-18555.97;5019708;28;20041;-77
2023/09/02 02:10:27;;;;;;;57.95;25.17;;;;;;;19.62;100.00;-18554.75;5014101;28;20038;-77
2023/09/02 02:12:52;;;;;;;56.55;24.50;;;;;;;19.69;100.00;-18556.53;5018675;28;20044;-77
2023/09/02 02:15:18;;;;;;;54.83;23.08;;;;;;;19.65;100.00;-18555.41;5007452;28;20603;-76
2023/09/02 02:17:43;;;;;;;57.70;24.30;;;;;;;19.65;100.00;-18555.41;5024454;28;20214;-76
2023/09/02 02:20:09;;;;;;;57.13;23.90;;;;;;;19.72;100.00;-18557.34;5008098;28;20409;-77
2023/09/02 02:22:35;;;;;;;59.53;22.73;;;;;;;19.59;100.00;-18554.06;5016651;28;20042;-76
2023/09/02 02:25:00;;;;;;;57.30;24.40;;;;;;;19.73;100.00;-18557.75;5025672;28;20033;-77
2023/09/02 02:27:26;;;;;;;57.42;24.67;;;;;;;19.48;100.00;-18551.06;5023732;28;20606;-77
2023/09/02 02:29:51;;;;;;;59.03;24.33;;;;;;;19.51;100.00;-18551.75;5007359;28;20033;-77
2023/09/02 02:32:16;;;;;;;54.33;23.17;;;;;;;19.60;100.00;-18554.34;5024899;28;20042;-77
2023/09/02 02:34:42;;;;;;;59.60;24.70;;;;;;;19.58;100.00;-18553.78;5023292;28;20057;-78
2023/09/02 02:37:07;;;;;;;60.63;24.33;;;;;;;19.58;100.00;-18553.78;5016784;28;20033;-78
2023/09/02 02:39:33;;;;;;;55.55;22.30;;;;;;;19.44;100.00;-18549.84;5002011;28;20378;-78
2023/09/02 02:41:59;;;;;;;59.10;24.17;;;;;;;19.46;100.00;-18550.53;5017448;28;20040;-78
2023/09/02 02:44:24;;;;;;;54.90;23.42;;;;;;;19.52;100.00;-18552.16;5024946;28;20115;-78
2023/09/02 02:46:50;;;;;;;58.22;24.10;;;;;;;19.60;100.00;-18554.34;5024635;28;20145;-78
2023/09/02 02:49:15;;;;;;;62.28;23.27;;;;;;;19.55;100.00;-18552.84;5026673;28;20045;-77
2023/09/02 02:51:40;;;;;;;60.67;23.85;;;;;;;19.46;100.00;-18550.53;5005746;28;20034;-77
2023/09/02 02:54:06;;;;;;;59.67;24.77;;;;;;;19.59;100.00;-18553.91;5025009;28;20444;-78
2023/09/02 02:56:31;;;;;;;63.90;25.40;;;;;;;19.54;100.00;-18552.69;5008544;28;20037;-78
2023/09/02 02:58:57;;;;;;;61.03;24.88;;;;;;;19.53;100.00;-18552.44;5003275;28;20063;-77
2023/09/02 03:01:22;;;;;;;55.60;23.63;;;;;;;19.51;100.00;-18551.88;5024630;28;20489;-78
2023/09/02 03:03:48;;;;;;;60.47;23.85;;;;;;;19.54;100.00;-18552.56;5017365;28;20404;-77
2023/09/02 03:06:19;;;;;;;57.40;25.13;;;;;;;19.57;100.00;-18553.50;5024327;28;20034;-78
2023/09/02 03:08:45;;;;;;;62.70;25.25;;;;;;;19.57;100.00;-18553.38;5006698;28;20060;-77
2023/09/02 03:11:10;;;;;;;60.80;25.30;;;;;;;19.50;100.00;-18551.47;5024383;28;20049;-78
2023/09/02 03:13:36;;;;;;;63.78;25.40;;;;;;;19.51;100.00;-18551.88;5024285;28;20613;-78
2023/09/02 03:16:02;;;;;;;65.68;27.30;;;;;;;19.27;100.00;-18545.34;5023958;28;20642;-78
2023/09/02 03:18:28;;;;;;;57.78;23.75;;;;;;;19.39;100.00;-18548.75;5024407;28;20042;-78
2023/09/02 03:20:54;;;;;;;58.90;25.08;;;;;;;19.52;100.00;-18552.16;5024608;28;20041;-77
2023/09/02 03:23:20;;;;;;;56.63;24.98;;;;;;;19.43;100.00;-18549.56;5024505;28;20046;-77
2023/09/02 03:25:45;;;;;;;64.47;24.42;;;;;;;19.34;100.00;-18547.38;5022971;28;20128;-77
2023/09/02 03:28:12;;;;;;;63.13;25.13;;;;;;;19.32;100.00;-18546.72;5024337;28;20034;-77
2023/09/02 03:30:37;;;;;;;59.92;24.70;;;;;;;19.41;100.00;-18549.16;5023707;28;20049;-77
2023/09/02 03:33:03;;;;;;;64.18;25.77;;;;;;;19.37;100.00;-18548.06;5018169;28;20046;-77
2023/09/02 03:35:28;;;;;;;62.05;25.38;;;;;;;19.26;100.00;-18545.06;5022097;28;20478;-77
2023/09/02 03:37:54;;;;;;;59.35;23.05;;;;;;;19.31;100.00;-18546.56;5006659;28;20038;-77
2023/09/02 03:40:19;;;;;;;59.35;23.98;;;;;;;19.30;100.00;-18546.28;5000449;28;20049;-77
2023/09/02 03:42:45;;;;;;;61.35;25.08;;;;;;;19.10;100.00;-18540.97;5023960;28;20396;-77
2023/09/02 03:45:10;;;;;;;66.45;25.58;;;;;;;19.14;100.00;-18541.94;5027362;28;20112;-77
2023/09/02 03:47:36;;;;;;;56.20;24.17;;;;;;;19.08;100.00;-18540.44;5008694;28;20053;-76
2023/09/02 03:50:05;;;;;;;56.97;23.35;;;;;;;19.14;100.00;-18542.06;5028056;28;20060;-76
2023/09/02 03:52:30;;;;;;;67.20;25.55;;;;;;;19.34;100.00;-18547.38;5027312;28;20072;-76
2023/09/02 03:54:56;;;;;;;65.88;23.85;;;;;;;19.17;100.00;-18542.88;5027598;28;20053;-76
2023/09/02 03:57:22;;;;;;;58.15;25.13;;;;;;;19.25;100.00;-18544.78;5025027;28;20095;-77
2023/09/02 03:59:47;;;;;;;59.38;22.92;;;;;;;19.25;100.00;-18544.94;5013439;28;20488;-76
2023/09/02 04:02:13;;;;;;;59.15;24.08;;;;;;;19.40;100.00;-18548.88;5026449;28;20562;-76
2023/09/02 04:04:39;;;;;;;58.45;23.90;;;;;;;19.49;100.00;-18551.34;5024566;28;20076;-77
2023/09/02 04:07:05;;;;;;;63.97;26.77;;;;;;;19.42;100.00;-18549.44;5026762;28;20061;-76
2023/09/02 04:09:30;;;;;;;60.92;24.20;;;;;;;19.32;100.00;-18546.72;5011870;28;20048;-77
2023/09/02 04:11:58;;;;;;;55.92;24.38;;;;;;;19.43;100.00;-18549.69;5023720;28;20046;-77
2023/09/02 04:14:23;;;;;;;59.58;24.48;;;;;;;19.42;100.00;-18549.28;5023119;28;20424;-76
2023/09/02 04:16:48;;;;;;;68.18;26.92;;;;;;;19.61;100.00;-18554.47;5027571;28;20087;-76
2023/09/02 04:19:14;;;;;;;64.90;25.25;;;;;;;19.59;100.00;-18554.06;5025095;28;20045;-76
2023/09/02 04:21:40;;;;;;;62.95;25.35;;;;;;;19.60;100.00;-18554.34;5014762;28;20065;-76
2023/09/02 04:24:05;;;;;;;68.97;25.55;;;;;;;19.55;100.00;-18552.84;5027560;28;20616;-76
2023/09/02 04:26:31;;;;;;;65.82;25.23;;;;;;;19.59;100.00;-18553.91;5006154;28;20053;-76
2023/09/02 04:28:57;;;;;;;65.22;24.73;;;;;;;19.66;100.00;-18555.69;5024083;28;20030;-76
2023/09/02 04:31:22;;;;;;;65.47;27.25;;;;;;;19.63;100.00;-18554.88;5018443;28;20052;-75
2023/09/02 04:33:48;;;;;;;61.78;25.05;;;;;;;19.63;100.00;-18555.00;5025840;28;20120;-76
2023/09/02 04:36:13;;;;;;;64.97;25.27;;;;;;;19.71;100.00;-18557.06;5024846;28;20128;-76
2023/09/02 04:38:39;;;;;;;66.45;25.00;;;;;;;19.75;100.00;-18558.16;5003764;28;20041;-76
2023/09/02 04:41:08;;;;;;;69.05;26.48;;;;;;;19.55;100.00;-18552.97;5027227;28;20033;-76
2023/09/02 04:43:34;;;;;;;67.88;26.77;;;;;;;19.67;100.00;-18556.09;5017336;28;20045;-76
2023/09/02 04:46:02;;;;;;;64.10;26.52;;;;;;;19.62;100.00;-18554.75;5024462;28;20042;-76
2023/09/02 04:48:28;;;;;;;64.90;25.45;;;;;;;19.56;100.00;-18553.09;5008556;28;20037;-76
2023/09/02 04:50:54;;;;;;;70.55;26.08;;;;;;;19.51;100.00;-18551.88;5027638;28;20064;-76
2023/09/02 04:53:20;;;;;;;68.93;25.65;;;;;;;19.46;100.00;-18550.53;5008507;28;20045;-76
2023/09/02 04:55:47;;;;;;;69.85;26.05;;;;;;;19.60;100.00;-18554.19;5024716;28;20037;-77
2023/09/02 04:58:12;;;;;;;67.18;24.85;;;;;;;19.60;100.00;-18554.34;5022092;28;20041;-76
2023/09/02 05:00:38;;;;;;;58.58;24.42;;;;;;;19.61;100.00;-18554.47;5026021;28;20047;-76
2023/09/02 05:03:04;;;;;;;70.60;25.13;;;;;;;19.46;100.00;-18550.53;5026755;28;20627;-76
2023/09/02 05:05:31;;;;;;;70.13;25.88;;;;;;;19.56;100.00;-18553.25;5023539;28;20041;-76
2023/09/02 05:07:57;;;;;;;67.70;25.10;;;;;;;19.69;100.00;-18556.53;5026654;28;20034;-76
2023/09/02 05:10:22;;;;;;;69.13;25.52;;;;;;;19.58;100.00;-18553.78;5025127;28;20695;-76
2023/09/02 05:12:48;;;;;;;73.43;26.92;;;;;;;19.66;100.00;-18555.84;5020270;28;20610;-76
2023/09/02 05:15:13;;;;;;;75.15;27.48;;;;;;;19.68;100.00;-18556.38;5025160;28;20501;-76
2023/09/02 05:17:38;;;;;;;76.18;27.77;;;;;;;19.69;100.00;-18556.53;5008658;28;20041;-76
2023/09/02 05:20:05;;;;;;;76.15;27.80;;;;;;;19.50;100.00;-18551.59;5009546;28;20038;-77
2023/09/02 05:22:30;;;;;;;75.68;28.30;;;;;;;19.36;100.00;-18547.94;5008703;28;20041;-76
2023/09/02 05:24:56;;;;;;;81.72;27.55;;;;;;;19.34;100.00;-18547.25;5020116;28;20044;-76
2023/09/02 05:27:22;;;;;;;76.28;28.00;;;;;;;19.43;100.00;-18549.56;5026225;28;20120;-77
2023/09/02 05:29:47;;;;;;;75.20;27.45;;;;;;;19.43;100.00;-18549.56;5018599;28;20033;-76
2023/09/02 05:32:13;;;;;;;74.47;27.83;;;;;;;19.42;100.00;-18549.44;5027585;28;20111;-76
2023/09/02 05:34:39;;;;;;;79.38;28.50;;;;;;;19.39;100.00;-18548.59;5011531;28;20037;-76
2023/09/02 05:37:05;;;;;;;81.68;29.15;;;;;;;19.29;100.00;-18545.88;5026668;28;20042;-75
2023/09/02 05:39:30;;;;;;;75.93;28.92;;;;;;;19.47;100.00;-18550.66;5020039;28;20060;-76
2023/09/02 05:41:56;;;;;;;78.78;28.58;;;;;;;19.43;100.00;-18549.69;5026719;28;20056;-76
2023/09/02 05:44:21;;;;;;;73.97;26.92;;;;;;;19.39;100.00;-18548.59;5025795;28;20049;-76
2023/09/02 05:46:46;;;;;;;79.15;30.60;;;;;;;19.57;100.00;-18553.38;5026317;28;20107;-76
2023/09/02 05:49:14;;;;;;;76.65;30.08;;;;;;;19.54;100.00;-18552.56;5020096;28;20061;-75
2023/09/02 05:51:40;;;;;;;84.50;30.58;;;;;;;19.71;100.00;-18557.19;5019066;28;20133;-76
2023/09/02 05:54:09;;;;;;;82.68;29.92;;;;;;;19.76;100.00;-18558.41;5026707;28;20136;-76
2023/09/02 05:56:35;;;;;;;78.47;30.80;;;;;;;19.78;100.00;-18558.97;5019815;28;20056;-76
2023/09/02 05:59:01;;;;;;;81.15;31.23;;;;;;;19.89;100.00;-18561.81;5024400;28;20132;-76
2023/09/02 06:01:26;;;;;;;72.28;29.92;;;;;;;19.64;100.00;-18555.28;5024052;28;20048;-77
2023/09/02 06:03:52;;;;;;;79.32;29.95;;;;;;;19.72;100.00;-18557.34;5008915;28;20560;-77
2023/09/02 06:06:17;;;;;;;77.40;30.60;;;;;;;19.89;100.00;-18561.81;5024993;28;20041;-76
2023/09/02 06:08:43;;;;;;;78.47;31.70;;;;;;;19.83;100.00;-18560.47;5026227;28;20733;-76
2023/09/02 06:11:08;;;;;;;75.70;29.77;;;;;;;19.81;100.00;-18559.78;5026423;28;20045;-77
2023/09/02 06:13:37;;;;;;;74.40;30.90;;;;;;;19.84;100.00;-18560.59;5024534;28;20048;-77
2023/09/02 06:16:03;;;;;;;;;;;;;;;19.95;100.00;-18563.47;5006896;28;20053;-77
2023/09/02 06:18:30;;;;;;;72.05;28.98;;;;;;;19.90;100.00;-18562.09;5026812;28;19999;-76
2023/09/02 06:20:59;;;;;;;82.97;33.00;;;;;;;19.81;100.00;-18559.91;5026141;28;20381;-75
2023/09/02 06:23:25;;;;;;;77.70;30.10;;;;;;;19.92;100.00;-18562.66;5025553;28;20029;-77
2023/09/02 06:26:00;;;;;;;78.03;30.42;;;;;;;19.88;100.00;-18561.56;5025979;28;20095;-77
2023/09/02 06:28:27;;;;;;;84.75;33.08;;;;;;;19.96;100.00;-18563.88;5025139;28;20061;-76
2023/09/02 06:30:52;;;;;;;80.25;31.70;;;;;;;19.96;100.00;-18563.72;5008769;28;20053;-77
2023/09/02 06:33:20;;;;;;;83.15;30.50;;;;;;;19.99;100.00;-18564.69;5025327;28;20083;-77
2023/09/02 06:35:45;;;;;;;81.68;30.83;;;;;;;20.08;100.00;-18567.00;5014591;28;20144;-76
2023/09/02 06:38:11;;;;;;;75.10;29.80;;;;;;;20.05;100.00;-18566.19;5007466;28;20160;-76
2023/09/02 06:40:36;;;;;;;81.57;28.35;;;;;;;20.04;100.00;-18566.03;5024090;28;20045;-76
2023/09/02 06:43:02;;;;;;;82.57;31.85;;;;;;;20.04;100.00;-18566.03;5022318;28;20115;-75
2023/09/02 06:45:27;;;;;;;78.20;30.23;;;;;;;20.04;100.00;-18566.03;5020435;28;20040;-76
2023/09/02 06:47:52;;;;;;;81.03;31.38;;;;;;;20.16;100.00;-18569.19;5026147;28;20056;-76
2023/09/02 06:50:18;;;;;;;73.05;30.90;;;;;;;20.18;100.00;-18569.59;5007913;28;20044;-76
2023/09/02 06:52:43;;;;;;;76.45;30.67;;;;;;;20.21;100.00;-18570.41;5021947;28;20035;-76
2023/09/02 06:55:08;;;;;;;76.43;31.00;;;;;;;20.24;100.00;-18571.34;5002019;28;20640;-78
2023/09/02 06:57:34;;;;;;;76.78;30.02;;;;;;;20.05;100.00;-18566.31;5023876;28;20033;-76
2023/09/02 06:59:59;;;;;;;73.95;28.95;;;;;;;20.10;100.00;-18567.53;5019493;28;20045;-75
2023/09/02 07:02:25;;;;;;;76.82;29.02;;;;;;;20.26;100.00;-18571.91;5025867;28;20041;-76
2023/09/02 07:04:50;;;;;;;74.30;28.42;;;;;;;20.23;100.00;-18571.09;5020459;28;20073;-76
2023/09/02 07:07:16;;;;;;;79.55;30.40;;;;;;;20.16;100.00;-18569.03;5026645;28;20044;-77
2023/09/02 07:09:42;;;;;;;86.15;32.38;;;;;;;20.13;100.00;-18568.22;5006652;28;20476;-78
2023/09/02 07:12:07;;;;;;;76.55;30.42;;;;;;;20.17;100.00;-18569.31;5019692;28;20040;-76
2023/09/02 07:14:32;;;;;;;78.57;30.58;;;;;;;20.28;100.00;-18572.31;5022725;28;20052;-77
2023/09/02 07:16:58;;;;;;;78.03;30.65;;;;;;;20.32;100.00;-18573.25;5015798;28;20554;-77
2023/09/02 07:19:24;;;;;;;72.38;29.25;;;;;;;20.22;100.00;-18570.69;5026997;28;20091;-75
2023/09/02 07:21:49;;;;;;;82.20;31.88;;;;;;;20.27;100.00;-18572.16;5027961;28;20044;-76
2023/09/02 07:24:15;;;;;;;78.57;30.83;;;;;;;20.22;100.00;-18570.81;5020225;28;20038;-76
2023/09/02 07:26:40;;;;;;;86.25;34.97;;;;;;;20.49;100.00;-18578.03;5026924;28;20041;-75
2023/09/02 07:29:06;;;;;;;79.25;30.35;;;;;;;20.38;100.00;-18575.03;5023573;28;20037;-76
2023/09/02 07:31:32;;;;;;;82.15;32.67;;;;;;;20.41;100.00;-18575.84;5022081;28;20536;-76
2023/09/02 07:33:57;;;;;;;77.28;30.77;;;;;;;20.44;100.00;-18576.66;5010108;28;20056;-76
2023/09/02 07:36:22;;;;;;;72.57;31.77;;;;;;;20.57;100.00;-18579.94;5023856;28;20053;-76
2023/09/02 07:38:48;;;;;;;72.35;31.38;;;;;;;20.64;100.00;-18581.84;5026941;28;20048;-76
2023/09/02 07:41:13;;;;;;;77.00;31.98;;;;;;;20.83;100.00;-18587.00;5027676;28;20050;-76
2023/09/02 07:43:38;;;;;;;73.68;31.67;;;;;;;20.82;100.00;-18586.72;5026882;28;20053;-76
2023/09/02 07:46:04;;;;;;;72.38;32.95;;;;;;;20.67;100.00;-18582.66;5026396;28;20128;-76
2023/09/02 07:48:29;;;;;;;76.93;32.35;;;;;;;20.47;100.00;-18577.34;5026267;28;20497;-76
2023/09/02 07:50:55;;;;;;;76.00;33.60;;;;;;;20.71;100.00;-18583.75;5025262;28;20103;-76
2023/09/02 07:53:20;;;;;;;74.88;33.28;;;;;;;20.70;100.00;-18583.59;5026994;28;20045;-76
2023/09/02 07:55:46;;;;;;;74.95;30.25;;;;;;;20.63;100.00;-18581.56;5004524;28;20062;-76
2023/09/02 07:58:11;;;;;;;72.30;31.00;;;;;;;20.79;100.00;-18585.91;5027569;28;20045;-76
2023/09/02 08:00:37;;;;;;;73.85;33.15;;;;;;;20.78;100.00;-18585.50;5026905;28;20048;-76
2023/09/02 08:03:03;;;;;;;66.95;33.08;;;;;;;20.88;100.00;-18588.38;5007383;28;20563;-75
2023/09/02 08:05:29;;;;;;;77.68;33.83;;;;;;;20.88;100.00;-18588.38;5026441;28;20034;-76
2023/09/02 08:07:55;;;;;;;73.57;34.47;;;;;;;20.84;100.00;-18587.16;5010102;28;20074;-77
2023/09/02 08:10:20;;;;;;;66.95;32.53;;;;;;;20.89;100.00;-18588.50;5027044;28;20063;-77
2023/09/02 08:12:46;;;;;;;67.05;30.98;;;;;;;20.87;100.00;-18588.09;5025563;28;20505;-76
2023/09/02 08:15:12;;;;;;;68.80;32.45;;;;;;;20.82;100.00;-18586.59;5009301;28;20041;-77
2023/09/02 08:17:39;;;;;;;71.35;31.40;;;;;;;20.73;100.00;-18584.41;5023327;28;20116;-77
2023/09/02 08:20:06;;;;;;;65.10;32.40;;;;;;;20.79;100.00;-18585.78;5009478;28;20040;-76
2023/09/02 08:22:32;;;;;;;63.90;30.70;;;;;;;20.75;100.00;-18584.69;5025180;28;20033;-77
2023/09/02 08:24:57;;;;;;;65.15;31.35;;;;;;;20.77;100.00;-18585.25;5026580;28;20041;-77
2023/09/02 08:27:24;;;;;;;65.07;31.52;;;;;;;20.79;100.00;-18585.91;5023696;28;20056;-76
2023/09/02 08:29:50;;;;;;;69.65;32.55;;;;;;;20.89;100.00;-18588.50;5024905;28;20025;-77
2023/09/02 08:32:15;;;;;;;63.90;30.13;;;;;;;21.04;100.00;-18592.44;5026653;28;20469;-77
2023/09/02 08:34:41;;;;;;;59.90;31.38;;;;;;;21.19;100.00;-18596.53;5027402;28;20037;-76
2023/09/02 08:37:06;;;;;;;64.57;29.50;;;;;;;21.11;100.00;-18594.34;5027110;28;20049;-77
2023/09/02 08:39:32;;;;;;;63.17;31.50;;;;;;;21.10;100.00;-18594.09;5026456;28;20086;-77
2023/09/02 08:41:57;;;;;;;63.10;30.13;;;;;;;21.12;100.00;-18594.63;5010063;28;20053;-76
2023/09/02 08:44:26;;;;;;;54.38;28.65;;;;;;;20.95;100.00;-18590.28;5011743;28;20464;-77
2023/09/02 08:46:53;;;;;;;56.65;27.75;;;;;;;21.20;100.00;-18596.78;5027914;28;20047;-77
2023/09/02 08:49:20;;;;;;;53.75;25.58;;;;;;;21.07;100.00;-18593.41;5027123;28;20709;-77
2023/09/02 08:51:46;;;;;;;52.92;26.17;;;;;;;21.14;100.00;-18595.16;5025072;28;20069;-77
2023/09/02 08:54:12;;;;;;;55.35;27.80;;;;;;;21.13;100.00;-18594.91;5028055;28;20052;-77
2023/09/02 08:56:41;;;;;;;51.08;27.30;;;;;;;21.45;100.00;-18603.31;5026377;28;20412;-78
2023/09/02 08:59:10;;;;;;;49.53;26.83;;;;;;;21.45;100.00;-18603.31;5010292;28;20091;-78
2023/09/02 09:01:43;;;;;;;55.85;27.02;;;;;;;21.35;100.00;-18600.88;5026205;28;20057;-78
2023/09/02 09:04:09;;;;;;;54.88;27.20;;;;;;;21.25;100.00;-18598.16;5027331;28;20041;-78
2023/09/02 09:06:36;;;;;;;48.92;26.38;;;;;;;21.43;100.00;-18602.78;5016716;28;20042;-78
2023/09/02 09:09:03;;;;;;;51.80;25.02;;;;;;;21.35;100.00;-18600.75;5026291;28;20056;-77
2023/09/02 09:11:32;;;;;;;44.53;25.00;;;;;;;21.27;100.00;-18598.69;5026223;28;20128;-77
2023/09/02 09:13:58;;;;;;;;;;;;;;;21.37;100.00;-18601.28;5009709;28;20064;-76
2023/09/02 09:16:25;;;;;;;48.53;25.90;;;;;;;21.35;100.00;-18600.88;5026351;28;19917;-77
2023/09/02 09:18:51;;;;;;;48.10;25.20;;;;;;;21.37;100.00;-18601.41;5026474;28;20088;-77
2023/09/02 09:21:17;;;;;;;52.63;27.88;;;;;;;21.47;100.00;-18604.00;5024380;28;20037;-76
2023/09/02 09:23:42;;;;;;;45.55;25.05;;;;;;;21.48;100.00;-18604.16;5022709;28;20127;-78
2023/09/02 09:26:10;;;;;;;50.50;26.10;;;;;;;21.52;100.00;-18605.22;5018247;28;20049;-78
2023/09/02 09:28:56;;;;;;;47.42;25.55;;;;;;;21.50;100.00;-18604.69;5020175;28;20041;-78
2023/09/02 09:31:22;;;;;;;52.10;27.67;;;;;;;21.72;100.00;-18610.66;5026283;28;20402;-77
2023/09/02 09:33:55;;;;;;;51.28;26.77;;;;;;;21.72;100.00;-18610.66;5026577;28;20106;-78
2023/09/02 09:36:22;;;;;;;50.72;27.33;;;;;;;21.53;100.00;-18605.63;5022627;28;20049;-77
2023/09/02 09:38:59;;;;;;;51.75;26.75;;;;;;;21.59;100.00;-18607.13;5024680;28;20056;-77
2023/09/02 09:41:25;;;;;;;48.50;25.90;;;;;;;21.71;100.00;-18610.25;5018756;28;20416;-77
2023/09/02 09:44:05;;;;;;;46.63;24.58;;;;;;;21.81;100.00;-18612.97;5016446;28;20067;-77
2023/09/02 09:46:33;;;;;;;45.25;26.38;;;;;;;21.93;100.00;-18616.25;5013950;28;20076;-77
2023/09/02 09:49:01;;;;;;;46.27;25.73;;;;;;;21.95;100.00;-18616.66;5027049;28;20770;-77
2023/09/02 09:51:27;;;;;;;49.47;26.15;;;;;;;21.93;100.00;-18616.09;5002452;28;20272;-77
2023/09/02 09:53:53;;;;;;;51.38;27.13;;;;;;;21.89;100.00;-18615.16;5026318;28;20046;-78
2023/09/02 09:56:19;;;;;;;50.17;26.52;;;;;;;21.94;100.00;-18616.38;5021195;28;20673;-77
2023/09/02 09:58:45;;;;;;;46.67;25.80;;;;;;;21.98;100.00;-18617.47;5025957;28;20580;-76
2023/09/02 10:01:19;;;;;;;44.78;23.55;;;;;;;21.95;100.00;-18616.78;5017779;28;20051;-76
2023/09/02 10:03:44;;;;;;;43.47;25.92;;;;;;;22.07;100.00;-18619.91;5008052;28;20099;-76
2023/09/02 10:06:10;;;;;;;44.35;23.90;;;;;;;21.90;100.00;-18615.44;5026275;28;20041;-76
2023/09/02 10:08:58;;;;;;;43.70;25.60;;;;;;;22.02;100.00;-18618.69;5026890;28;20761;-77
2023/09/02 10:11:26;;;;;;;47.35;25.35;;;;;;;22.07;100.00;-18619.91;5021279;28;20050;-77
2023/09/02 10:13:52;;;;;;;43.45;24.85;;;;;;;22.03;100.00;-18618.81;5027007;28;20037;-77
2023/09/02 10:16:19;;;;;;;44.70;24.52;;;;;;;21.97;100.00;-18617.19;5027983;28;20069;-77
2023/09/02 10:18:48;;;;;;;40.83;24.05;;;;;;;22.09;100.00;-18620.59;5009039;28;20398;-77
2023/09/02 10:21:14;;;;;;;;;;;;;;;22.40;100.00;-18628.59;5028732;28;20489;-77
2023/09/02 10:23:47;;;;;;;38.40;22.08;;;;;;;22.21;100.00;-18623.56;5025174;28;19917;-77
2023/09/02 10:26:27;;;;;;;42.55;23.85;;;;;;;22.13;100.00;-18621.41;5020828;28;20034;-76
2023/09/02 10:28:58;;;;;;;33.70;20.63;;;;;;;21.98;100.00;-18617.47;5011534;28;20150;-76
2023/09/02 10:31:30;;;;;;;35.45;20.67;;;;;;;22.09;100.00;-18620.44;5023351;28;20037;-77
2023/09/02 10:34:21;;;;;;;41.00;23.48;;;;;;;22.29;100.00;-18625.88;5023201;28;20052;-76
2023/09/02 10:36:54;;;;;;;37.10;21.80;;;;;;;22.18;100.00;-18622.91;5025045;28;20047;-76
2023/09/02 10:39:30;;;;;;;40.33;24.75;;;;;;;21.94;100.00;-18616.38;5027021;28;20041;-77
2023/09/02 10:41:57;;;;;;;37.95;22.92;;;;;;;22.16;100.00;-18622.34;5023002;28;20037;-77
2023/09/02 10:44:24;;;;;;;39.25;23.35;;;;;;;22.16;100.00;-18622.22;5025593;28;20065;-77
2023/09/02 10:46:50;;;;;;;39.92;23.80;;;;;;;22.17;100.00;-18622.50;5024830;28;20065;-77
2023/09/02 10:49:15;;;;;;;38.90;23.17;;;;;;;22.29;100.00;-18625.88;5009715;28;20073;-77
2023/09/02 10:51:43;;;;;;;42.80;23.67;;;;;;;22.30;100.00;-18626.16;5026538;28;20037;-77
2023/09/02 10:54:08;;;;;;;42.22;24.50;;;;;;;22.41;100.00;-18628.88;5006159;28;20099;-78
2023/09/02 10:56:35;;;;;;;37.10;23.38;;;;;;;22.44;100.00;-18629.69;5008944;28;20041;-78
2023/09/02 10:59:05;;;;;;;38.65;23.27;;;;;;;22.35;100.00;-18627.25;5028334;28;20122;-77
2023/09/02 11:01:48;;;;;;;40.42;24.40;;;;;;;22.50;100.00;-18631.31;5025239;28;20537;-77